Time;durP1;ratioP1;P1;durP2;ratioP2;P2;SDS_P1;SDS_P2;PMS_P1;PMS_P2;Temp;Humidity;BMP_temperature;BMP_pressure;BME280_temperature;BME280_humidity;BME280_pressure;Samples;Min_cycle;Max_cycle;Signal;HPM_P1;HPM_P2
2021/12/05 00:27:06;;;;;;;16.60;4.97;;;;;;;0.59;100.00;100891.06;6063578;23;20007;-90
2021/12/05 00:29:45;;;;;;;15.52;4.75;;;;;;;0.57;100.00;100898.25;6095702;23;20009;-86
2021/12/05 00:32:44;;;;;;;23.13;7.63;;;;;;;0.49;100.00;100908.53;6158358;23;20013;-88
2021/12/05 00:46:16;;;;;;;14.35;4.60;;;;;;;0.21;100.00;100926.34;6116385;23;20009;-90
2021/12/05 01:06:15;;;;;;;10.65;4.25;;;;;;;0.30;100.00;100927.50;6158033;23;20447;-90
2021/12/05 01:08:27;;;;;;;16.90;3.78;;;;;;;0.12;100.00;100928.75;6133731;23;20002;-85
2021/12/05 01:16:14;;;;;;;8.00;2.60;;;;;;;-0.04;100.00;100928.94;6133058;23;20043;-87
2021/12/05 01:18:40;;;;;;;11.05;2.58;;;;;;;0.07;100.00;100931.69;6158600;23;20031;-90
2021/12/05 01:21:11;;;;;;;9.02;2.20;;;;;;;0.15;100.00;100931.19;6108061;23;20016;-89
2021/12/05 01:23:52;;;;;;;12.55;3.15;;;;;;;0.16;100.00;100925.81;6133344;23;20032;-86
2021/12/05 01:26:23;;;;;;;11.05;2.80;;;;;;;0.15;100.00;100925.88;6135418;23;20013;-87
2021/12/05 01:31:52;;;;;;;14.68;3.08;;;;;;;0.15;100.00;100931.19;6184076;23;20091;-90
2021/12/05 02:29:41;;;;;;;9.95;1.85;;;;;;;0.18;100.00;100994.44;6160775;23;20009;-86
2021/12/05 02:42:21;;;;;;;7.63;1.95;;;;;;;-0.19;100.00;101003.97;6157583;23;20131;-87
2021/12/05 02:44:47;;;;;;;9.50;2.38;;;;;;;-0.28;100.00;101013.34;6109378;23;20044;-87
2021/12/05 02:47:18;;;;;;;10.48;1.73;;;;;;;-0.43;100.00;101023.09;6156846;23;20378;-88
2021/12/05 02:49:47;;;;;;;9.27;2.17;;;;;;;-0.49;100.00;101026.13;6108624;23;20005;-86
2021/12/05 02:52:23;;;;;;;5.68;2.30;;;;;;;-0.45;100.00;101032.91;6108686;23;20012;-88
2021/12/05 02:54:53;;;;;;;10.82;2.97;;;;;;;-0.59;100.00;101033.78;6135875;23;20445;-87
2021/12/05 02:58:13;;;;;;;10.52;2.42;;;;;;;-0.75;100.00;101023.34;6108499;23;20016;-89
2021/12/05 03:00:18;;;;;;;15.97;2.20;;;;;;;-0.64;100.00;101046.44;6150877;23;20104;-86
2021/12/05 03:02:46;;;;;;;12.80;3.17;;;;;;;-0.61;100.00;101046.25;6107933;23;20009;-87
2021/12/05 03:05:16;;;;;;;11.25;3.17;;;;;;;-0.59;100.00;101043.50;6157667;23;20004;-88
2021/12/05 03:07:46;;;;;;;18.55;3.08;;;;;;;-0.33;100.00;101060.34;6157689;23;20005;-87
2021/12/05 03:10:13;;;;;;;14.98;2.88;;;;;;;-0.15;100.00;101045.94;6109099;23;20040;-86
2021/12/05 03:12:39;;;;;;;6.05;1.08;;;;;;;0.06;100.00;101064.00;6107168;23;20005;-88
2021/12/05 03:15:11;;;;;;;8.55;1.45;;;;;;;0.07;100.00;101063.06;6133023;23;20039;-87
2021/12/05 03:17:37;;;;;;;11.52;2.17;;;;;;;0.12;100.00;101072.38;6134916;23;20452;-86
2021/12/05 03:20:05;;;;;;;6.65;1.75;;;;;;;0.16;100.00;101068.59;6159338;23;20025;-85
2021/12/05 03:22:30;;;;;;;15.57;2.22;;;;;;;0.17;100.00;101066.78;6132897;23;20028;-87
2021/12/05 03:24:56;;;;;;;7.38;1.63;;;;;;;0.08;100.00;101062.97;6132485;23;20671;-88
2021/12/05 03:27:22;;;;;;;7.47;1.42;;;;;;;0.16;100.00;101071.22;6132909;23;20032;-85
2021/12/05 03:29:48;;;;;;;2.83;1.00;;;;;;;0.24;100.00;101056.63;6133208;23;20425;-85
2021/12/05 03:32:14;;;;;;;6.30;1.35;;;;;;;0.40;100.00;101068.75;6160052;23;20011;-86
2021/12/05 03:34:39;;;;;;;9.52;1.00;;;;;;;0.40;100.00;101084.63;6138480;23;20005;-86
2021/12/05 03:37:06;;;;;;;7.53;1.27;;;;;;;0.38;100.00;101064.53;6114174;23;20005;-88
2021/12/05 03:39:32;;;;;;;5.88;1.33;;;;;;;0.37;100.00;101081.31;6186754;23;20009;-86
2021/12/05 03:41:58;;;;;;;8.10;1.77;;;;;;;0.37;100.00;101081.31;6156474;23;20096;-87
2021/12/05 03:44:25;;;;;;;8.05;1.70;;;;;;;0.35;100.00;101075.31;6184759;23;20009;-88
2021/12/05 03:46:53;;;;;;;13.50;1.45;;;;;;;0.39;100.00;101088.19;6133697;23;20001;-89
2021/12/05 03:49:19;;;;;;;6.57;1.10;;;;;;;0.42;100.00;101093.31;6109022;23;20099;-89
2021/12/05 03:51:52;;;;;;;14.38;1.60;;;;;;;0.48;100.00;101107.94;6158854;23;20329;-91
2021/12/05 03:54:19;;;;;;;6.85;1.50;;;;;;;0.39;100.00;101112.00;6158526;23;20035;-88
2021/12/05 03:56:45;;;;;;;12.38;1.77;;;;;;;0.23;100.00;101119.25;6133711;23;20064;-87
2021/12/05 03:59:12;;;;;;;11.18;1.40;;;;;;;0.03;100.00;101111.78;6157952;23;20009;-89
2021/12/05 04:01:38;;;;;;;10.88;1.42;;;;;;;-0.05;100.00;101121.06;6184938;23;20004;-86
2021/12/05 04:04:06;;;;;;;5.03;1.30;;;;;;;-0.18;100.00;101119.31;6157591;23;20425;-89
2021/12/05 04:06:31;;;;;;;7.32;1.50;;;;;;;-0.32;100.00;101120.16;6109056;23;20012;-89
2021/12/05 04:09:00;;;;;;;8.27;1.83;;;;;;;-0.46;100.00;101119.25;6158319;23;20005;-87
2021/12/05 04:11:37;;;;;;;5.72;1.20;;;;;;;-0.41;100.00;101118.13;6156667;23;20453;-92
2021/12/05 04:14:09;;;;;;;10.95;2.03;;;;;;;-0.40;100.00;101109.22;6109582;23;20317;-86
2021/12/05 04:16:35;;;;;;;9.30;1.23;;;;;;;-0.38;100.00;101116.13;6107785;23;20036;-88
2021/12/05 04:19:01;;;;;;;7.25;1.33;;;;;;;-0.46;100.00;101105.19;6157341;23;19997;-88
2021/12/05 04:21:29;;;;;;;7.70;1.60;;;;;;;-0.51;100.00;101107.28;6108723;23;20009;-92
2021/12/05 04:23:55;;;;;;;7.55;1.48;;;;;;;-0.47;100.00;101125.47;6133531;23;20001;-88
2021/12/05 04:26:21;;;;;;;8.48;1.48;;;;;;;-0.54;100.00;101121.50;6108938;23;20437;-88
2021/12/05 04:28:47;;;;;;;5.30;1.05;;;;;;;-0.50;100.00;101119.56;6182112;23;20016;-87
2021/12/05 04:31:15;;;;;;;8.88;1.40;;;;;;;-0.55;100.00;101117.19;6157873;23;20006;-90
2021/12/05 04:33:40;;;;;;;4.97;1.30;;;;;;;-0.55;100.00;101133.03;6133106;23;20008;-86
2021/12/05 04:36:07;;;;;;;6.95;1.80;;;;;;;-0.57;100.00;101128.78;6132923;23;20777;-87
2021/12/05 04:38:33;;;;;;;5.53;1.30;;;;;;;-0.52;100.00;101138.13;6183478;23;20524;-87
2021/12/05 04:40:59;;;;;;;6.85;1.00;;;;;;;-0.59;100.00;101142.09;6108488;23;20095;-88
2021/12/05 04:43:25;;;;;;;6.43;1.10;;;;;;;-0.58;100.00;101142.91;6132193;23;20063;-90
2021/12/05 04:45:50;;;;;;;6.70;1.05;;;;;;;-0.55;100.00;101148.88;6108668;23;20369;-89
2021/12/05 04:48:16;;;;;;;3.25;1.00;;;;;;;-0.64;100.00;101156.50;6157755;23;20001;-88
2021/12/05 04:50:44;;;;;;;6.97;1.30;;;;;;;-0.63;100.00;101151.16;6157604;23;20001;-89
2021/12/05 04:53:10;;;;;;;5.70;1.13;;;;;;;-0.62;100.00;101159.91;6132915;23;20393;-90
2021/12/05 04:55:36;;;;;;;7.05;1.05;;;;;;;-0.61;100.00;101157.16;6157334;23;20000;-89
2021/12/05 04:58:05;;;;;;;3.65;1.10;;;;;;;-0.49;100.00;101168.78;6108433;23;20021;-87
2021/12/05 05:00:40;;;;;;;6.85;1.58;;;;;;;-0.42;100.00;101171.88;6133098;23;20044;-88
2021/12/05 05:03:09;;;;;;;2.83;1.25;;;;;;;-0.39;100.00;101183.13;6157134;23;20031;-91
2021/12/05 05:05:35;;;;;;;3.80;1.20;;;;;;;-0.56;100.00;101173.56;6107506;23;20068;-87
2021/12/05 05:08:02;;;;;;;3.15;0.93;;;;;;;-0.56;100.00;101181.50;6157169;23;20580;-90
2021/12/05 05:10:30;;;;;;;3.80;0.90;;;;;;;-0.56;100.00;101178.03;6108182;23;20092;-90
2021/12/05 05:12:56;;;;;;;7.70;1.60;;;;;;;-0.61;100.00;101180.94;6107819;23;20001;-89
2021/12/05 05:15:25;;;;;;;8.50;1.60;;;;;;;-0.65;100.00;101179.44;6157566;23;20005;-90
2021/12/05 05:17:53;;;;;;;4.90;1.00;;;;;;;-0.73;100.00;101173.78;6108130;23;20001;-84
2021/12/05 05:21:10;;;;;;;4.13;1.00;;;;;;;-0.79;100.00;101172.38;6132934;23;20143;-88
2021/12/05 05:23:28;;;;;;;2.90;1.00;;;;;;;-0.95;100.00;101171.59;6150687;23;20036;-87
2021/12/05 05:47:41;;;;;;;4.20;1.17;;;;;;;-0.95;100.00;101182.16;6134131;23;20327;-93
2021/12/05 05:50:07;;;;;;;5.50;1.30;;;;;;;-0.78;100.00;101173.19;6157158;23;20043;-87
2021/12/05 05:52:33;;;;;;;3.90;1.20;;;;;;;-0.55;100.00;101188.50;6182766;23;20004;-87
2021/12/05 05:55:00;;;;;;;5.35;1.20;;;;;;;-0.39;100.00;101198.13;6157633;23;20147;-87
2021/12/05 06:00:05;;;;;;;10.25;2.38;;;;;;;-0.12;100.00;101204.34;6157910;23;20009;-91
2021/12/05 06:05:15;;;;;;;6.93;1.17;;;;;;;0.01;100.00;101200.94;6156890;23;20080;-89
2021/12/05 06:07:45;;;;;;;9.05;1.27;;;;;;;-0.04;100.00;101210.00;6155941;23;20348;-89
2021/12/05 06:10:19;;;;;;;5.28;1.02;;;;;;;-0.14;100.00;101211.50;6157741;23;20092;-88
2021/12/05 06:12:45;;;;;;;7.50;0.95;;;;;;;-0.25;100.00;101206.88;6157503;23;20005;-89
2021/12/05 06:15:14;;;;;;;7.72;1.20;;;;;;;-0.27;100.00;101211.41;6157066;23;20009;-89
2021/12/05 06:17:41;;;;;;;8.20;1.42;;;;;;;-0.28;100.00;101224.75;6107613;23;20013;-89
2021/12/05 06:20:12;;;;;;;7.18;1.08;;;;;;;-0.31;100.00;101225.78;6107827;23;20013;-87
2021/12/05 06:22:38;;;;;;;7.28;1.85;;;;;;;-0.34;100.00;101225.13;6156854;23;20012;-86
2021/12/05 06:25:08;;;;;;;7.97;1.02;;;;;;;-0.33;100.00;101224.16;6131449;23;20001;-87
2021/12/05 06:27:34;;;;;;;7.68;1.15;;;;;;;-0.26;100.00;101230.78;6107339;23;20096;-88
2021/12/05 06:30:11;;;;;;;10.50;1.35;;;;;;;-0.19;100.00;101229.44;6156573;23;20461;-89
2021/12/05 06:38:07;;;;;;;8.82;2.33;;;;;;;0.17;100.00;101234.22;6156216;23;20091;-89
2021/12/05 06:40:57;;;;;;;11.15;1.50;;;;;;;0.23;100.00;101235.63;6184986;23;20004;-87
2021/12/05 06:46:39;;;;;;;8.65;1.70;;;;;;;0.04;100.00;101235.09;6159222;23;20353;-89
2021/12/05 06:48:58;;;;;;;7.07;0.98;;;;;;;-0.10;100.00;101255.31;6158694;23;20009;-87
2021/12/05 06:51:26;;;;;;;15.63;1.95;;;;;;;-0.20;100.00;101248.91;6132041;23;20048;-89
2021/12/05 06:53:53;;;;;;;5.72;1.00;;;;;;;-0.15;100.00;101252.13;6131708;23;20008;-89
2021/12/05 06:56:20;;;;;;;7.60;1.50;;;;;;;-0.13;100.00;101260.81;6132073;23;20028;-87
2021/12/05 06:58:45;;;;;;;5.90;1.60;;;;;;;-0.15;100.00;101261.84;6107531;23;20001;-89
2021/12/05 07:01:12;;;;;;;6.03;1.45;;;;;;;-0.19;100.00;101253.22;6131085;23;20471;-89
2021/12/05 07:03:42;;;;;;;4.05;0.85;;;;;;;-0.12;100.00;101266.94;6131232;23;20440;-86
2021/12/05 07:06:11;;;;;;;15.35;1.20;;;;;;;-0.11;100.00;101269.47;6107412;23;20092;-87
2021/12/05 07:08:42;;;;;;;9.98;1.67;;;;;;;-0.07;100.00;101268.34;6156402;23;20009;-87
2021/12/05 07:14:20;;;;;;;12.40;1.65;;;;;;;0.05;100.00;101271.16;6134035;23;20092;-86
2021/12/05 07:17:04;;;;;;;5.53;1.58;;;;;;;0.08;100.00;101273.63;6135829;23;20488;-87
2021/12/05 07:19:51;;;;;;;11.55;1.60;;;;;;;0.09;100.00;101270.03;6162708;23;20021;-87
2021/12/05 07:22:29;;;;;;;13.45;2.50;;;;;;;0.01;100.00;101261.75;6161156;23;20005;-88
2021/12/05 07:25:14;;;;;;;12.20;1.40;;;;;;;0.08;100.00;101273.63;6134819;23;20015;-89
2021/12/05 07:42:19;;;;;;;15.48;8.50;;;;;;;-0.01;100.00;101297.03;6156650;23;20024;-87
2021/12/05 07:44:11;;;;;;;11.30;5.32;;;;;;;-0.24;100.00;101287.91;6124195;23;20012;-86
2021/12/05 07:46:37;;;;;;;8.35;3.55;;;;;;;-0.22;100.00;101303.63;6156385;23;20041;-88
2021/12/05 07:49:05;;;;;;;10.73;1.88;;;;;;;-0.26;100.00;101308.28;6182545;23;20144;-86
2021/12/05 07:51:38;;;;;;;6.85;1.10;;;;;;;-0.31;100.00;101317.41;6132551;23;20020;-89
2021/12/05 07:54:16;;;;;;;7.83;2.40;;;;;;;-0.50;100.00;101302.66;6157511;23;20088;-86
2021/12/05 07:56:50;;;;;;;13.13;4.60;;;;;;;-0.67;100.00;101324.78;6155236;23;20009;-87
2021/12/05 08:15:58;;;;;;;3.97;1.33;;;;;;;-0.83;100.00;101312.56;6135404;23;20009;-86
2021/12/05 08:18:40;;;;;;;4.30;1.30;;;;;;;-0.77;100.00;101313.03;6182368;23;19997;-86
2021/12/05 08:21:07;;;;;;;5.85;1.85;;;;;;;-0.78;100.00;101316.63;6181678;23;20448;-87
2021/12/05 08:23:33;;;;;;;6.72;1.23;;;;;;;-0.84;100.00;101319.63;6130938;23;20009;-88
2021/12/05 08:26:15;;;;;;;8.32;1.67;;;;;;;-0.70;100.00;101322.31;6155823;23;20009;-89
2021/12/05 08:31:22;;;;;;;4.80;1.27;;;;;;;-0.24;100.00;101332.81;6133656;23;20496;-86
2021/12/05 10:16:24;;;;;;;6.53;2.67;;;;;;;1.93;100.00;101425.78;6106083;23;20036;-89
2021/12/05 10:38:32;;;;;;;23.55;6.57;;;;;;;2.26;100.00;101447.47;6156522;23;20068;-87
2021/12/05 10:43:41;;;;;;;26.30;7.60;;;;;;;2.54;100.00;101449.91;6134433;23;20005;-87
2021/12/05 10:46:16;;;;;;;12.70;3.75;;;;;;;2.86;100.00;101442.31;6133476;23;20088;-87
2021/12/05 10:48:53;;;;;;;11.50;4.50;;;;;;;3.25;100.00;101452.84;6107317;23;20451;-90
2021/12/05 10:51:28;;;;;;;11.13;5.47;;;;;;;3.49;98.99;101445.75;6133207;23;20067;-88
2021/12/05 10:54:03;;;;;;;11.23;6.20;;;;;;;3.82;98.59;101444.19;6133113;23;20005;-88
2021/12/05 10:56:36;;;;;;;22.73;8.73;;;;;;;3.94;97.85;101450.38;6108992;23;20110;-89
2021/12/05 10:59:07;;;;;;;18.88;10.70;;;;;;;4.10;97.77;101447.41;6158393;23;20016;-89
2021/12/05 11:01:49;;;;;;;23.33;9.30;;;;;;;4.46;96.60;101435.75;6158220;23;20009;-91
2021/12/05 11:04:20;;;;;;;19.13;7.60;;;;;;;4.82;96.52;101445.34;6158413;23;20009;-88
2021/12/05 11:06:55;;;;;;;152.45;50.45;;;;;;;4.80;96.84;101447.25;6157234;23;20021;-88
2021/12/05 11:09:32;;;;;;;179.38;52.85;;;;;;;4.78;96.48;101443.88;6157073;23;20007;-91
2021/12/05 11:12:08;;;;;;;92.60;37.20;;;;;;;4.61;96.40;101447.88;6155729;23;20084;-89
2021/12/05 11:14:38;;;;;;;65.88;17.45;;;;;;;4.72;95.71;101438.19;6132674;23;20028;-88
2021/12/05 11:17:11;;;;;;;112.25;28.15;;;;;;;4.80;95.67;101447.25;6106156;23;20013;-87
2021/12/05 11:19:41;;;;;;;46.45;11.10;;;;;;;5.31;93.83;101442.34;6151106;23;20013;-91
2021/12/05 11:22:07;;;;;;;17.67;7.30;;;;;;;5.40;94.02;101441.59;6108519;23;20426;-89
2021/12/05 11:24:40;;;;;;;75.82;26.48;;;;;;;5.20;93.37;101444.06;6131880;23;20031;-89
2021/12/05 11:27:41;;;;;;;49.28;21.73;;;;;;;5.28;92.74;101446.97;6108547;23;20008;-88
2021/12/05 11:30:10;;;;;;;49.72;14.70;;;;;;;5.68;91.69;101438.34;6039237;23;20018;-89
2021/12/05 11:32:39;;;;;;;31.75;10.00;;;;;;;6.10;91.02;101456.28;6135878;23;20430;-89
2021/12/05 11:35:18;;;;;;;35.60;12.88;;;;;;;6.41;89.68;101456.34;6181485;23;20495;-89
2021/12/05 11:38:14;;;;;;;52.95;19.42;;;;;;;7.26;87.57;101461.34;6133110;23;20365;-89
2021/12/05 11:41:02;;;;;;;37.78;12.63;;;;;;;8.33;84.67;101451.50;6123196;23;20005;-90
2021/12/05 11:43:38;;;;;;;27.60;11.07;;;;;;;9.34;81.66;101448.16;6108520;23;20009;-88
2021/12/05 11:46:23;;;;;;;21.55;7.32;;;;;;;10.19;78.25;101449.47;6132626;23;20337;-89
2021/12/05 11:49:02;;;;;;;39.42;11.57;;;;;;;10.09;76.86;101454.09;6183500;23;20005;-90
2021/12/05 11:51:56;;;;;;;13.95;2.92;;;;;;;10.16;75.73;101448.91;6109007;23;20437;-87
2021/12/05 11:54:38;;;;;;;13.80;6.18;;;;;;;10.19;74.93;101445.91;6132082;23;20531;-87
2021/12/05 11:57:11;;;;;;;10.38;2.92;;;;;;;10.37;74.42;101452.13;6105098;23;20009;-90
2021/12/05 11:59:43;;;;;;;7.22;3.90;;;;;;;10.33;74.22;101459.66;6157648;23;20417;-91
2021/12/05 12:02:18;;;;;;;14.52;7.70;;;;;;;10.67;73.20;101452.66;6131898;23;20065;-91
2021/12/05 12:04:55;;;;;;;9.20;3.70;;;;;;;10.52;72.99;101455.94;6108002;23;20493;-90
2021/12/05 12:07:39;;;;;;;22.20;7.07;;;;;;;11.29;70.81;101452.44;6134440;23;20484;-88
2021/12/05 12:10:23;;;;;;;11.57;2.58;;;;;;;11.55;68.23;101452.34;6135091;23;20056;-91
2021/12/05 12:12:53;;;;;;;;;;;;;;;11.78;67.27;101448.00;6185947;23;20004;-89
2021/12/05 12:15:24;;;;;;;6.72;2.15;;;;;;;12.09;66.90;101439.25;6158502;23;19912;-90
2021/12/05 12:17:52;;;;;;;7.55;3.00;;;;;;;12.73;66.35;101436.66;6134775;23;20013;-91
2021/12/05 12:20:22;;;;;;;9.15;3.25;;;;;;;13.22;63.92;101436.44;6134276;23;20016;-90
2021/12/05 12:22:49;;;;;;;87.35;37.13;;;;;;;13.51;61.18;101422.28;6134441;23;20009;-88
2021/12/05 12:25:24;;;;;;;53.22;25.33;;;;;;;13.74;60.04;101430.41;6158512;23;19997;-89
2021/12/05 12:27:50;;;;;;;33.25;16.52;;;;;;;13.88;58.59;101433.34;6134136;23;20035;-91
2021/12/05 12:30:25;;;;;;;28.42;10.98;;;;;;;13.83;57.86;101425.78;6158452;23;20084;-91
2021/12/05 12:33:13;;;;;;;33.42;14.45;;;;;;;13.90;57.32;101418.63;6110142;23;20001;-92
2021/12/05 12:35:43;;;;;;;65.18;21.85;;;;;;;14.16;56.07;101414.69;6158112;23;20515;-92
2021/12/05 12:38:17;;;;;;;43.70;16.30;;;;;;;14.33;55.64;101429.72;6109371;23;20040;-91
2021/12/05 12:40:58;;;;;;;30.75;14.95;;;;;;;14.40;55.17;101430.69;6110056;23;20056;-90
2021/12/05 12:43:46;;;;;;;24.95;10.43;;;;;;;14.70;53.34;101428.84;6134596;23;20009;-89
2021/12/05 12:46:44;;;;;;;20.60;7.60;;;;;;;15.01;51.91;101418.88;6116322;23;20009;-90
2021/12/05 12:49:15;;;;;;;17.45;6.82;;;;;;;15.24;50.74;101418.72;6134890;23;20005;-91
2021/12/05 12:52:02;;;;;;;21.95;7.25;;;;;;;15.42;49.77;101407.47;6134527;23;20215;-91
2021/12/05 12:54:52;;;;;;;35.78;12.38;;;;;;;15.56;48.74;101403.88;6158358;23;20337;-91
2021/12/05 12:57:33;;;;;;;15.80;6.00;;;;;;;15.23;48.68;101393.50;6110098;23;20009;-90
2021/12/05 13:00:07;;;;;;;17.75;6.90;;;;;;;14.69;49.47;101391.16;6134031;23;20032;-91
2021/12/05 13:02:56;;;;;;;30.08;14.43;;;;;;;14.84;49.88;101381.13;6159010;23;20429;-91
2021/12/05 13:11:18;;;;;;;11.23;2.28;;;;;;;15.06;49.22;101370.38;6137384;23;20016;-91
2021/12/05 13:13:46;;;;;;;6.00;2.10;;;;;;;15.66;48.19;101371.00;6109550;23;20009;-91
2021/12/05 13:16:30;;;;;;;6.15;1.95;;;;;;;15.75;47.40;101373.44;6133195;23;20012;-90
2021/12/05 13:19:10;;;;;;;11.85;2.90;;;;;;;15.61;48.26;101366.16;6135090;23;20028;-91
2021/12/05 13:21:45;;;;;;;7.50;1.75;;;;;;;15.95;46.96;101380.88;6109176;23;20001;-90
2021/12/05 13:24:36;;;;;;;13.82;3.90;;;;;;;16.00;47.57;101381.13;6109777;23;20005;-90
2021/12/05 13:27:08;;;;;;;12.55;2.58;;;;;;;16.29;46.92;101380.09;6109596;23;20533;-89
2021/12/05 13:29:57;;;;;;;15.43;2.70;;;;;;;15.79;47.30;101379.28;6108999;23;20008;-91
2021/12/05 13:32:30;;;;;;;12.90;2.20;;;;;;;15.33;47.96;101371.53;6133827;23;20007;-90
2021/12/05 13:35:08;;;;;;;9.05;2.42;;;;;;;14.32;49.97;101367.72;6156013;23;20099;-90
2021/12/05 13:37:42;;;;;;;13.70;3.00;;;;;;;13.19;53.32;101372.81;6133105;23;20063;-90
2021/12/05 13:40:16;;;;;;;11.75;2.83;;;;;;;13.23;54.03;101369.75;6157966;23;20013;-89
2021/12/05 13:43:06;;;;;;;9.93;2.67;;;;;;;12.16;56.54;101372.03;6157996;23;20005;-87
2021/12/05 13:45:37;;;;;;;12.90;2.85;;;;;;;11.02;60.37;101370.09;6182997;23;20032;-90
2021/12/05 13:48:05;;;;;;;10.50;2.97;;;;;;;10.47;62.42;101377.59;6133270;23;20005;-89
2021/12/05 13:50:42;;;;;;;16.63;4.07;;;;;;;10.18;64.07;101377.88;6157594;23;20084;-89
2021/12/05 13:53:12;;;;;;;19.15;5.15;;;;;;;10.76;63.62;101382.59;6184711;23;20001;-88
2021/12/05 13:56:02;;;;;;;20.42;6.00;;;;;;;11.21;62.91;101384.09;6157295;23;20326;-89
2021/12/05 13:58:35;;;;;;;21.95;5.50;;;;;;;11.73;61.91;101383.00;6133166;23;20013;-91
2021/12/05 14:01:16;;;;;;;16.73;5.72;;;;;;;12.60;59.43;101358.13;6132334;23;20244;-91
2021/12/05 14:04:10;;;;;;;17.70;5.90;;;;;;;13.06;58.21;101372.56;6157654;23;20387;-90
2021/12/05 14:07:05;;;;;;;15.40;3.90;;;;;;;13.13;57.45;101368.13;6133839;23;20005;-91
2021/12/05 14:09:51;;;;;;;11.95;3.00;;;;;;;13.13;56.87;101365.44;6129975;23;20096;-92
2021/12/05 14:12:29;;;;;;;21.15;6.55;;;;;;;11.90;60.22;101353.38;6135349;23;20059;-89
2021/12/05 14:15:16;;;;;;;12.65;3.20;;;;;;;10.95;62.21;101353.75;6136636;23;20071;-90
2021/12/05 14:17:48;;;;;;;29.20;8.13;;;;;;;10.12;64.95;101349.81;6158569;23;20017;-89
2021/12/05 14:20:17;;;;;;;31.92;10.15;;;;;;;9.59;66.72;101347.25;6144872;23;20082;-88
2021/12/05 14:22:44;;;;;;;17.85;5.82;;;;;;;9.11;68.97;101341.25;6120839;23;20012;-88
2021/12/05 14:25:12;;;;;;;51.33;15.27;;;;;;;8.84;70.43;101341.28;6124044;23;20021;-90
2021/12/05 14:27:41;;;;;;;62.95;18.50;;;;;;;8.52;71.42;101330.03;6120675;23;20005;-89
2021/12/05 14:30:09;;;;;;;25.80;6.00;;;;;;;8.31;72.66;101329.41;6166902;23;19996;-88
2021/12/05 14:32:42;;;;;;;17.67;6.53;;;;;;;8.17;74.24;101337.88;6146248;23;20031;-87
2021/12/05 14:35:12;;;;;;;35.97;11.85;;;;;;;7.98;74.62;101331.59;6144971;23;20001;-89
2021/12/05 14:37:40;;;;;;;15.20;3.78;;;;;;;7.92;75.76;101335.69;6122281;23;20096;-90
2021/12/05 14:40:35;;;;;;;18.60;5.55;;;;;;;7.85;76.70;101331.06;6172557;23;20033;-88
2021/12/05 14:43:07;;;;;;;38.88;12.65;;;;;;;7.76;76.43;101326.59;6161629;23;20012;-90
2021/12/05 14:45:39;;;;;;;19.63;5.85;;;;;;;7.72;77.19;101334.88;6137718;23;20016;-91
2021/12/05 14:48:15;;;;;;;36.20;6.38;;;;;;;7.61;77.55;101323.50;6159612;23;20429;-90
2021/12/05 14:50:44;;;;;;;18.42;4.20;;;;;;;7.59;77.55;101325.47;6156004;23;20341;-90
2021/12/05 14:53:13;;;;;;;20.33;6.28;;;;;;;7.53;77.98;101321.53;6133681;23;20009;-92
2021/12/05 14:55:49;;;;;;;18.63;5.72;;;;;;;7.38;78.13;101307.75;6160561;23;20005;-87
2021/12/05 14:58:16;;;;;;;16.73;3.97;;;;;;;7.42;79.07;101325.19;6133603;23;20011;-91
2021/12/05 15:00:45;;;;;;;11.57;3.50;;;;;;;7.32;79.18;101310.97;6133031;23;20096;-88
2021/12/05 15:03:15;;;;;;;9.60;4.07;;;;;;;7.25;78.68;101307.16;6132591;23;20001;-88
2021/12/05 15:05:48;;;;;;;10.05;3.83;;;;;;;7.25;79.60;101320.53;6108615;23;20016;-90
2021/12/05 15:08:16;;;;;;;70.00;23.10;;;;;;;7.14;79.94;101318.00;6206713;23;20011;-90
2021/12/05 15:10:47;;;;;;;72.63;23.90;;;;;;;7.02;81.41;101311.97;6132834;23;20023;-90
2021/12/05 15:13:15;;;;;;;116.80;36.20;;;;;;;6.78;82.03;101299.81;6156457;23;20071;-91
2021/12/05 15:15:41;;;;;;;155.63;46.47;;;;;;;6.80;82.78;101315.69;6132802;23;20088;-89
2021/12/05 15:18:14;;;;;;;143.27;42.88;;;;;;;6.64;83.16;101294.00;6155920;23;20083;-90
2021/12/05 15:20:40;;;;;;;;;;;;;;;6.61;83.67;101303.16;6156869;23;20460;-89
2021/12/05 15:23:10;;;;;;;389.95;109.30;;;;;;;6.53;84.39;101306.50;6157583;23;19904;-91
2021/12/05 15:25:41;;;;;;;125.70;43.20;;;;;;;6.45;84.58;101292.13;6156538;23;20005;-91
2021/12/05 15:28:08;;;;;;;38.42;14.70;;;;;;;6.37;85.09;101299.00;6157182;23;20012;-89
2021/12/05 15:30:37;;;;;;;29.85;10.95;;;;;;;6.28;85.75;101296.31;6132184;23;20096;-91
2021/12/05 15:33:11;;;;;;;25.33;11.88;;;;;;;6.16;86.17;101293.72;6131960;23;20156;-89
2021/12/05 15:35:38;;;;;;;83.95;31.00;;;;;;;5.94;86.42;101284.06;6107803;23;20005;-90
2021/12/05 15:38:09;;;;;;;108.00;35.55;;;;;;;5.77;87.05;101291.78;6156360;23;20067;-90
2021/12/05 15:40:42;;;;;;;134.18;46.10;;;;;;;5.58;87.62;101285.34;6108739;23;20021;-88
2021/12/05 15:43:18;;;;;;;119.68;41.92;;;;;;;5.37;88.33;101276.50;6131741;23;20502;-92
2021/12/05 15:45:50;;;;;;;125.43;45.97;;;;;;;5.07;88.59;101262.13;6156344;23;20076;-88
2021/12/05 15:48:36;;;;;;;156.80;58.65;;;;;;;5.00;90.17;101291.09;6132014;23;20005;-91
2021/12/05 15:51:05;;;;;;;140.50;48.65;;;;;;;4.81;91.18;101288.25;6108071;23;20048;-92
2021/12/05 15:53:35;;;;;;;152.27;57.22;;;;;;;4.69;92.79;101295.44;6108658;23;20005;-90
2021/12/05 15:56:05;;;;;;;193.15;51.47;;;;;;;4.67;93.28;101305.34;6132033;23;20013;-91
2021/12/05 15:58:39;;;;;;;61.83;22.75;;;;;;;4.59;94.11;101294.47;6107319;23;20005;-91
2021/12/05 16:01:06;;;;;;;;;;;;;;;4.59;94.35;101305.13;6157463;23;20005;-90
2021/12/05 16:03:50;;;;;;;67.55;24.98;;;;;;;4.49;95.01;101293.53;6156637;23;19905;-92
2021/12/05 16:06:40;;;;;;;110.13;36.60;;;;;;;4.32;94.21;101294.88;6157348;23;20052;-92
2021/12/05 16:09:17;;;;;;;107.75;37.95;;;;;;;4.10;95.17;101291.25;6109385;23;20125;-88
2021/12/05 16:11:44;;;;;;;111.30;37.22;;;;;;;3.92;97.00;101282.06;6132490;23;20013;-89
2021/12/05 16:14:10;;;;;;;162.30;47.17;;;;;;;3.91;98.07;101275.03;6156012;23;20001;-89
2021/12/05 16:16:39;;;;;;;149.20;41.78;;;;;;;3.94;98.99;101282.75;6132233;23;20012;-89
2021/12/05 16:19:09;;;;;;;205.68;50.65;;;;;;;3.96;99.17;101281.69;6156667;23;20005;-88
2021/12/05 16:21:36;;;;;;;183.38;55.75;;;;;;;3.88;98.94;101268.13;6132245;23;20024;-88
2021/12/05 16:24:08;;;;;;;174.95;53.20;;;;;;;3.94;99.79;101277.44;6107576;23;20005;-90
2021/12/05 16:26:37;;;;;;;158.73;50.83;;;;;;;3.84;98.80;101266.69;6107842;23;20433;-90
2021/12/05 16:29:10;;;;;;;156.30;50.03;;;;;;;3.76;98.84;101274.44;6108008;23;20112;-90
2021/12/05 16:31:39;;;;;;;97.72;36.78;;;;;;;3.62;99.21;101253.34;6107061;23;20005;-88
2021/12/05 16:34:06;;;;;;;130.88;49.70;;;;;;;3.57;99.64;101261.69;6156246;23;20005;-90
2021/12/05 16:36:34;;;;;;;123.43;50.38;;;;;;;3.50;100.00;101263.97;6106560;23;20762;-88
2021/12/05 16:39:10;;;;;;;108.20;45.53;;;;;;;3.49;100.00;101256.97;6132109;23;20025;-88
2021/12/05 16:41:36;;;;;;;85.18;38.58;;;;;;;3.51;100.00;101259.50;6132042;23;20441;-88
2021/12/05 16:44:08;;;;;;;115.78;49.08;;;;;;;3.51;100.00;101276.28;6132224;23;20008;-89
2021/12/05 16:46:37;;;;;;;94.68;43.45;;;;;;;3.48;100.00;101270.38;6108055;23;20009;-90
2021/12/05 16:49:06;;;;;;;80.43;38.95;;;;;;;3.45;100.00;101266.13;6132164;23;20009;-89
2021/12/05 16:51:36;;;;;;;52.05;26.45;;;;;;;3.42;100.00;101254.91;6132570;23;20329;-90
2021/12/05 16:54:20;;;;;;;44.22;21.58;;;;;;;3.38;100.00;101243.63;6134167;23;20040;-89
2021/12/05 16:56:51;;;;;;;108.55;37.83;;;;;;;3.29;100.00;101255.81;6134307;23;20012;-91
2021/12/05 16:59:38;;;;;;;114.38;40.40;;;;;;;3.28;100.00;101269.22;6133844;23;20005;-90
2021/12/05 17:02:20;;;;;;;163.32;46.47;;;;;;;3.27;100.00;101264.88;6108466;23;20009;-89
2021/12/05 17:04:58;;;;;;;48.13;18.33;;;;;;;3.26;100.00;101261.38;6158762;23;20016;-88
2021/12/05 17:10:54;;;;;;;24.75;10.45;;;;;;;3.08;100.00;101250.31;6064118;23;20011;-87
2021/12/05 17:13:26;;;;;;;15.45;7.22;;;;;;;3.00;100.00;101250.06;6064007;23;20041;-90
2021/12/05 17:15:58;;;;;;;12.18;6.10;;;;;;;3.00;100.00;101259.84;6096176;23;20032;-89